sensor_id;sensor_type;location;lat;lon;timestamp;temperature;humidity
8707;DHT22;4390;49.302;9.306;2022-08-25T00:01:47;19.50;82.60
8707;DHT22;4390;49.302;9.306;2022-08-25T00:04:16;19.50;82.80
8707;DHT22;4390;49.302;9.306;2022-08-25T00:06:44;19.40;83.10
8707;DHT22;4390;49.302;9.306;2022-08-25T00:09:14;19.30;83.20
8707;DHT22;4390;49.302;9.306;2022-08-25T00:11:41;19.30;83.30
8707;DHT22;4390;49.302;9.306;2022-08-25T00:14:12;19.30;83.30
8707;DHT22;4390;49.302;9.306;2022-08-25T00:16:39;19.30;83.30
8707;DHT22;4390;49.302;9.306;2022-08-25T00:19:10;19.30;83.20
8707;DHT22;4390;49.302;9.306;2022-08-25T00:21:37;19.20;83.30
8707;DHT22;4390;49.302;9.306;2022-08-25T00:24:07;19.20;83.40
8707;DHT22;4390;49.302;9.306;2022-08-25T00:26:38;19.20;83.60
8707;DHT22;4390;49.302;9.306;2022-08-25T00:29:05;19.20;83.60
8707;DHT22;4390;49.302;9.306;2022-08-25T00:31:32;19.20;83.50
8707;DHT22;4390;49.302;9.306;2022-08-25T00:34:11;19.20;83.50
8707;DHT22;4390;49.302;9.306;2022-08-25T00:36:38;19.30;83.40
8707;DHT22;4390;49.302;9.306;2022-08-25T00:39:07;19.20;83.40
8707;DHT22;4390;49.302;9.306;2022-08-25T00:41:35;19.20;83.60
8707;DHT22;4390;49.302;9.306;2022-08-25T00:44:04;19.20;83.50
8707;DHT22;4390;49.302;9.306;2022-08-25T00:46:39;19.10;83.50
8707;DHT22;4390;49.302;9.306;2022-08-25T00:49:10;19.20;83.50
8707;DHT22;4390;49.302;9.306;2022-08-25T00:52:08;19.20;83.30
8707;DHT22;4390;49.302;9.306;2022-08-25T00:54:51;19.20;83.10
8707;DHT22;4390;49.302;9.306;2022-08-25T00:57:24;19.10;83.30
8707;DHT22;4390;49.302;9.306;2022-08-25T01:00:05;19.10;83.20
8707;DHT22;4390;49.302;9.306;2022-08-25T01:02:33;19.00;83.50
8707;DHT22;4390;49.302;9.306;2022-08-25T01:05:01;19.10;83.40
8707;DHT22;4390;49.302;9.306;2022-08-25T01:07:27;19.10;83.50
8707;DHT22;4390;49.302;9.306;2022-08-25T01:09:54;19.00;83.50
8707;DHT22;4390;49.302;9.306;2022-08-25T01:12:21;19.10;83.60
8707;DHT22;4390;49.302;9.306;2022-08-25T01:14:50;19.10;83.60
8707;DHT22;4390;49.302;9.306;2022-08-25T01:17:18;18.90;84.00
8707;DHT22;4390;49.302;9.306;2022-08-25T01:19:46;18.90;84.10
8707;DHT22;4390;49.302;9.306;2022-08-25T01:22:12;18.90;84.20
8707;DHT22;4390;49.302;9.306;2022-08-25T01:25:23;18.90;84.30
8707;DHT22;4390;49.302;9.306;2022-08-25T01:27:51;18.80;84.50
8707;DHT22;4390;49.302;9.306;2022-08-25T01:30:18;18.70;84.70
8707;DHT22;4390;49.302;9.306;2022-08-25T01:32:44;18.70;84.70
8707;DHT22;4390;49.302;9.306;2022-08-25T01:35:12;18.70;84.80
8707;DHT22;4390;49.302;9.306;2022-08-25T01:37:39;18.60;84.80
8707;DHT22;4390;49.302;9.306;2022-08-25T01:40:07;18.60;84.80
8707;DHT22;4390;49.302;9.306;2022-08-25T01:42:52;18.60;84.70
8707;DHT22;4390;49.302;9.306;2022-08-25T01:45:20;18.60;84.70
8707;DHT22;4390;49.302;9.306;2022-08-25T01:47:47;18.70;84.40
8707;DHT22;4390;49.302;9.306;2022-08-25T01:50:14;18.70;84.30
8707;DHT22;4390;49.302;9.306;2022-08-25T01:52:53;18.70;84.40
8707;DHT22;4390;49.302;9.306;2022-08-25T01:55:20;18.70;84.30
8707;DHT22;4390;49.302;9.306;2022-08-25T01:57:47;18.60;84.40
8707;DHT22;4390;49.302;9.306;2022-08-25T02:00:14;18.50;84.90
8707;DHT22;4390;49.302;9.306;2022-08-25T02:02:44;18.40;85.50
8707;DHT22;4390;49.302;9.306;2022-08-25T02:05:13;18.30;85.90
8707;DHT22;4390;49.302;9.306;2022-08-25T02:07:41;18.30;85.90
8707;DHT22;4390;49.302;9.306;2022-08-25T02:10:10;18.30;85.80
8707;DHT22;4390;49.302;9.306;2022-08-25T02:12:38;18.30;85.70
8707;DHT22;4390;49.302;9.306;2022-08-25T02:15:06;18.30;85.70
8707;DHT22;4390;49.302;9.306;2022-08-25T02:17:34;18.30;85.40
8707;DHT22;4390;49.302;9.306;2022-08-25T02:20:04;18.40;85.30
8707;DHT22;4390;49.302;9.306;2022-08-25T02:22:31;18.30;85.30
8707;DHT22;4390;49.302;9.306;2022-08-25T02:24:58;18.40;85.20
8707;DHT22;4390;49.302;9.306;2022-08-25T02:27:25;18.40;85.10
8707;DHT22;4390;49.302;9.306;2022-08-25T02:29:51;18.30;85.40
8707;DHT22;4390;49.302;9.306;2022-08-25T02:32:18;18.20;85.60
8707;DHT22;4390;49.302;9.306;2022-08-25T02:34:45;18.00;86.20
8707;DHT22;4390;49.302;9.306;2022-08-25T02:37:12;18.00;86.50
8707;DHT22;4390;49.302;9.306;2022-08-25T02:39:39;18.00;86.50
8707;DHT22;4390;49.302;9.306;2022-08-25T02:42:06;18.00;86.40
8707;DHT22;4390;49.302;9.306;2022-08-25T02:44:33;17.90;86.80
8707;DHT22;4390;49.302;9.306;2022-08-25T02:46:59;18.00;86.80
8707;DHT22;4390;49.302;9.306;2022-08-25T02:49:26;17.90;86.80
8707;DHT22;4390;49.302;9.306;2022-08-25T02:51:53;17.90;87.10
8707;DHT22;4390;49.302;9.306;2022-08-25T02:54:20;17.90;87.00
8707;DHT22;4390;49.302;9.306;2022-08-25T02:56:48;17.90;86.80
8707;DHT22;4390;49.302;9.306;2022-08-25T02:59:15;18.10;86.50
8707;DHT22;4390;49.302;9.306;2022-08-25T03:01:43;18.00;86.60
8707;DHT22;4390;49.302;9.306;2022-08-25T03:04:10;18.00;86.80
8707;DHT22;4390;49.302;9.306;2022-08-25T03:06:37;18.00;87.00
8707;DHT22;4390;49.302;9.306;2022-08-25T03:09:05;18.00;86.90
8707;DHT22;4390;49.302;9.306;2022-08-25T03:11:32;18.00;86.90
8707;DHT22;4390;49.302;9.306;2022-08-25T03:13:59;18.00;86.90
8707;DHT22;4390;49.302;9.306;2022-08-25T03:16:26;18.10;86.70
8707;DHT22;4390;49.302;9.306;2022-08-25T03:18:54;18.00;86.60
8707;DHT22;4390;49.302;9.306;2022-08-25T03:21:21;18.10;86.60
8707;DHT22;4390;49.302;9.306;2022-08-25T03:23:48;18.10;86.50
8707;DHT22;4390;49.302;9.306;2022-08-25T03:26:15;18.00;86.20
8707;DHT22;4390;49.302;9.306;2022-08-25T03:29:01;17.90;86.40
8707;DHT22;4390;49.302;9.306;2022-08-25T03:31:32;18.00;86.40
8707;DHT22;4390;49.302;9.306;2022-08-25T03:34:00;18.00;86.10
8707;DHT22;4390;49.302;9.306;2022-08-25T03:36:27;17.90;86.10
8707;DHT22;4390;49.302;9.306;2022-08-25T03:38:54;17.90;86.00
8707;DHT22;4390;49.302;9.306;2022-08-25T03:41:25;17.80;86.20
8707;DHT22;4390;49.302;9.306;2022-08-25T03:43:55;17.80;86.10
8707;DHT22;4390;49.302;9.306;2022-08-25T03:46:24;17.80;86.10
8707;DHT22;4390;49.302;9.306;2022-08-25T03:48:52;17.70;86.20
8707;DHT22;4390;49.302;9.306;2022-08-25T03:51:27;17.70;86.30
8707;DHT22;4390;49.302;9.306;2022-08-25T03:53:54;17.60;86.40
8707;DHT22;4390;49.302;9.306;2022-08-25T03:56:22;17.40;86.80
8707;DHT22;4390;49.302;9.306;2022-08-25T03:58:49;17.40;86.90
8707;DHT22;4390;49.302;9.306;2022-08-25T04:01:16;17.50;86.80
8707;DHT22;4390;49.302;9.306;2022-08-25T04:03:44;17.40;86.70
8707;DHT22;4390;49.302;9.306;2022-08-25T04:06:12;17.50;86.70
8707;DHT22;4390;49.302;9.306;2022-08-25T04:08:39;17.20;87.20
8707;DHT22;4390;49.302;9.306;2022-08-25T04:11:11;17.20;87.30
8707;DHT22;4390;49.302;9.306;2022-08-25T04:13:39;17.20;87.30
8707;DHT22;4390;49.302;9.306;2022-08-25T04:16:13;17.20;87.30
8707;DHT22;4390;49.302;9.306;2022-08-25T04:18:40;17.20;87.60
8707;DHT22;4390;49.302;9.306;2022-08-25T04:21:08;17.10;87.70
8707;DHT22;4390;49.302;9.306;2022-08-25T04:23:36;17.20;87.70
8707;DHT22;4390;49.302;9.306;2022-08-25T04:26:15;17.10;87.90
8707;DHT22;4390;49.302;9.306;2022-08-25T04:28:42;17.10;87.80
8707;DHT22;4390;49.302;9.306;2022-08-25T04:31:11;17.10;87.90
8707;DHT22;4390;49.302;9.306;2022-08-25T04:33:40;17.20;87.90
8707;DHT22;4390;49.302;9.306;2022-08-25T04:36:09;17.20;87.80
8707;DHT22;4390;49.302;9.306;2022-08-25T04:38:40;17.20;87.80
8707;DHT22;4390;49.302;9.306;2022-08-25T04:41:09;17.10;87.90
8707;DHT22;4390;49.302;9.306;2022-08-25T04:43:38;17.10;87.80
8707;DHT22;4390;49.302;9.306;2022-08-25T04:46:14;17.10;87.80
8707;DHT22;4390;49.302;9.306;2022-08-25T04:48:47;17.20;87.60
8707;DHT22;4390;49.302;9.306;2022-08-25T04:51:18;17.10;87.80
8707;DHT22;4390;49.302;9.306;2022-08-25T04:53:46;17.10;88.00
8707;DHT22;4390;49.302;9.306;2022-08-25T04:56:15;17.00;88.10
8707;DHT22;4390;49.302;9.306;2022-08-25T04:58:42;17.00;88.30
8707;DHT22;4390;49.302;9.306;2022-08-25T05:01:12;17.00;88.40
8707;DHT22;4390;49.302;9.306;2022-08-25T05:03:43;17.00;88.40
8707;DHT22;4390;49.302;9.306;2022-08-25T05:06:10;17.10;88.30
8707;DHT22;4390;49.302;9.306;2022-08-25T05:08:42;17.00;88.60
8707;DHT22;4390;49.302;9.306;2022-08-25T05:11:13;17.00;88.70
8707;DHT22;4390;49.302;9.306;2022-08-25T05:13:42;17.00;88.80
8707;DHT22;4390;49.302;9.306;2022-08-25T05:16:17;17.10;88.80
8707;DHT22;4390;49.302;9.306;2022-08-25T05:18:44;17.00;88.90
8707;DHT22;4390;49.302;9.306;2022-08-25T05:21:17;17.10;88.60
8707;DHT22;4390;49.302;9.306;2022-08-25T05:23:45;17.20;88.30
8707;DHT22;4390;49.302;9.306;2022-08-25T05:26:16;17.20;88.20
8707;DHT22;4390;49.302;9.306;2022-08-25T05:28:50;17.30;88.20
8707;DHT22;4390;49.302;9.306;2022-08-25T05:31:18;17.40;88.10
8707;DHT22;4390;49.302;9.306;2022-08-25T05:33:45;17.40;88.00
8707;DHT22;4390;49.302;9.306;2022-08-25T05:36:13;17.40;88.20
8707;DHT22;4390;49.302;9.306;2022-08-25T05:38:40;17.40;88.20
8707;DHT22;4390;49.302;9.306;2022-08-25T05:41:10;17.50;88.10
8707;DHT22;4390;49.302;9.306;2022-08-25T05:43:39;17.50;88.10
8707;DHT22;4390;49.302;9.306;2022-08-25T05:46:06;17.50;88.30
8707;DHT22;4390;49.302;9.306;2022-08-25T05:48:34;17.60;88.30
8707;DHT22;4390;49.302;9.306;2022-08-25T05:51:03;17.60;88.40
8707;DHT22;4390;49.302;9.306;2022-08-25T05:53:30;17.60;88.30
8707;DHT22;4390;49.302;9.306;2022-08-25T05:56:00;17.70;88.40
8707;DHT22;4390;49.302;9.306;2022-08-25T05:58:28;17.60;88.70
8707;DHT22;4390;49.302;9.306;2022-08-25T06:00:57;17.70;88.80
8707;DHT22;4390;49.302;9.306;2022-08-25T06:03:24;17.70;88.60
8707;DHT22;4390;49.302;9.306;2022-08-25T06:05:50;17.90;88.50
8707;DHT22;4390;49.302;9.306;2022-08-25T06:08:18;18.00;88.40
8707;DHT22;4390;49.302;9.306;2022-08-25T06:10:51;18.00;88.30
8707;DHT22;4390;49.302;9.306;2022-08-25T06:13:17;18.10;88.60
8707;DHT22;4390;49.302;9.306;2022-08-25T06:15:57;18.30;88.30
8707;DHT22;4390;49.302;9.306;2022-08-25T06:18:25;18.40;88.20
8707;DHT22;4390;49.302;9.306;2022-08-25T06:20:52;18.60;87.90
8707;DHT22;4390;49.302;9.306;2022-08-25T06:23:20;18.70;87.80
8707;DHT22;4390;49.302;9.306;2022-08-25T06:25:53;18.70;87.90
8707;DHT22;4390;49.302;9.306;2022-08-25T06:28:20;18.80;88.20
8707;DHT22;4390;49.302;9.306;2022-08-25T06:30:47;18.90;88.10
8707;DHT22;4390;49.302;9.306;2022-08-25T06:33:14;19.00;87.90
8707;DHT22;4390;49.302;9.306;2022-08-25T06:35:42;19.20;87.60
8707;DHT22;4390;49.302;9.306;2022-08-25T06:38:09;19.30;87.80
8707;DHT22;4390;49.302;9.306;2022-08-25T06:40:36;19.40;87.60
8707;DHT22;4390;49.302;9.306;2022-08-25T06:43:03;19.50;87.70
8707;DHT22;4390;49.302;9.306;2022-08-25T06:45:34;19.60;87.50
8707;DHT22;4390;49.302;9.306;2022-08-25T06:48:01;19.70;87.10
8707;DHT22;4390;49.302;9.306;2022-08-25T06:50:27;19.80;87.00
8707;DHT22;4390;49.302;9.306;2022-08-25T06:52:54;20.00;86.70
8707;DHT22;4390;49.302;9.306;2022-08-25T06:55:21;20.10;86.60
8707;DHT22;4390;49.302;9.306;2022-08-25T06:57:51;20.40;85.60
8707;DHT22;4390;49.302;9.306;2022-08-25T07:00:20;20.40;85.80
8707;DHT22;4390;49.302;9.306;2022-08-25T07:02:56;20.60;85.60
8707;DHT22;4390;49.302;9.306;2022-08-25T07:05:23;20.70;85.30
8707;DHT22;4390;49.302;9.306;2022-08-25T07:07:59;20.70;85.50
8707;DHT22;4390;49.302;9.306;2022-08-25T07:10:26;20.80;85.20
8707;DHT22;4390;49.302;9.306;2022-08-25T07:12:57;20.90;84.90
8707;DHT22;4390;49.302;9.306;2022-08-25T07:15:23;20.80;85.30
8707;DHT22;4390;49.302;9.306;2022-08-25T07:17:50;20.80;85.20
8707;DHT22;4390;49.302;9.306;2022-08-25T07:20:17;21.00;84.90
8707;DHT22;4390;49.302;9.306;2022-08-25T07:22:45;21.10;84.80
8707;DHT22;4390;49.302;9.306;2022-08-25T07:25:12;21.10;84.40
8707;DHT22;4390;49.302;9.306;2022-08-25T07:27:40;21.10;84.60
8707;DHT22;4390;49.302;9.306;2022-08-25T07:30:08;21.20;84.50
8707;DHT22;4390;49.302;9.306;2022-08-25T07:32:36;21.30;84.30
8707;DHT22;4390;49.302;9.306;2022-08-25T07:35:08;21.40;84.00
8707;DHT22;4390;49.302;9.306;2022-08-25T07:37:50;21.50;83.90
8707;DHT22;4390;49.302;9.306;2022-08-25T07:40:23;21.60;83.70
8707;DHT22;4390;49.302;9.306;2022-08-25T07:42:52;21.60;83.70
8707;DHT22;4390;49.302;9.306;2022-08-25T07:45:21;21.80;83.60
8707;DHT22;4390;49.302;9.306;2022-08-25T07:48:00;22.00;82.90
8707;DHT22;4390;49.302;9.306;2022-08-25T07:50:28;22.10;82.70
8707;DHT22;4390;49.302;9.306;2022-08-25T07:52:57;22.20;82.70
8707;DHT22;4390;49.302;9.306;2022-08-25T07:55:26;22.30;82.30
8707;DHT22;4390;49.302;9.306;2022-08-25T07:57:54;22.30;82.10
8707;DHT22;4390;49.302;9.306;2022-08-25T08:00:23;22.40;82.30
8707;DHT22;4390;49.302;9.306;2022-08-25T08:02:53;22.40;81.20
8707;DHT22;4390;49.302;9.306;2022-08-25T08:05:20;22.50;81.70
8707;DHT22;4390;49.302;9.306;2022-08-25T08:07:49;22.70;81.70
8707;DHT22;4390;49.302;9.306;2022-08-25T08:10:16;22.80;80.90
8707;DHT22;4390;49.302;9.306;2022-08-25T08:13:03;22.90;80.70
8707;DHT22;4390;49.302;9.306;2022-08-25T08:15:33;23.10;80.80
8707;DHT22;4390;49.302;9.306;2022-08-25T08:18:00;23.10;80.90
8707;DHT22;4390;49.302;9.306;2022-08-25T08:20:28;23.20;80.50
8707;DHT22;4390;49.302;9.306;2022-08-25T08:23:09;23.40;80.10
8707;DHT22;4390;49.302;9.306;2022-08-25T08:25:36;23.40;79.90
8707;DHT22;4390;49.302;9.306;2022-08-25T08:28:02;23.40;79.70
8707;DHT22;4390;49.302;9.306;2022-08-25T08:30:33;23.50;79.70
8707;DHT22;4390;49.302;9.306;2022-08-25T08:33:02;23.70;79.10
8707;DHT22;4390;49.302;9.306;2022-08-25T08:35:42;23.80;78.70
8707;DHT22;4390;49.302;9.306;2022-08-25T08:38:09;24.00;78.70
8707;DHT22;4390;49.302;9.306;2022-08-25T08:41:07;24.10;78.00
8707;DHT22;4390;49.302;9.306;2022-08-25T08:55:34;24.50;76.90
8707;DHT22;4390;49.302;9.306;2022-08-25T08:58:11;24.60;76.30
8707;DHT22;4390;49.302;9.306;2022-08-25T09:00:45;24.80;76.70
8707;DHT22;4390;49.302;9.306;2022-08-25T09:03:51;24.80;76.20
8707;DHT22;4390;49.302;9.306;2022-08-25T09:06:31;24.90;75.60
8707;DHT22;4390;49.302;9.306;2022-08-25T09:09:02;25.20;75.80
8707;DHT22;4390;49.302;9.306;2022-08-25T09:22:58;25.60;75.30
8707;DHT22;4390;49.302;9.306;2022-08-25T09:25:51;25.70;74.60
8707;DHT22;4390;49.302;9.306;2022-08-25T09:31:00;25.90;74.20
8707;DHT22;4390;49.302;9.306;2022-08-25T09:33:30;26.10;73.70
8707;DHT22;4390;49.302;9.306;2022-08-25T09:36:03;26.30;73.50
8707;DHT22;4390;49.302;9.306;2022-08-25T09:38:34;26.30;73.00
8707;DHT22;4390;49.302;9.306;2022-08-25T09:41:02;26.30;72.80
8707;DHT22;4390;49.302;9.306;2022-08-25T09:43:40;26.40;72.80
8707;DHT22;4390;49.302;9.306;2022-08-25T09:51:26;26.60;72.60
8707;DHT22;4390;49.302;9.306;2022-08-25T09:56:57;26.70;72.40
8707;DHT22;4390;49.302;9.306;2022-08-25T09:59:35;26.80;72.30
8707;DHT22;4390;49.302;9.306;2022-08-25T10:02:26;27.00;72.00
8707;DHT22;4390;49.302;9.306;2022-08-25T10:04:55;27.20;71.50
8707;DHT22;4390;49.302;9.306;2022-08-25T10:07:26;27.30;71.20
8707;DHT22;4390;49.302;9.306;2022-08-25T10:09:56;27.40;71.40
8707;DHT22;4390;49.302;9.306;2022-08-25T10:12:42;27.50;71.20
8707;DHT22;4390;49.302;9.306;2022-08-25T10:21:07;28.10;69.70
8707;DHT22;4390;49.302;9.306;2022-08-25T10:23:37;28.30;70.00
8707;DHT22;4390;49.302;9.306;2022-08-25T10:29:16;28.60;69.10
8707;DHT22;4390;49.302;9.306;2022-08-25T10:34:51;28.90;68.40
8707;DHT22;4390;49.302;9.306;2022-08-25T10:40:21;29.30;67.70
8707;DHT22;4390;49.302;9.306;2022-08-25T10:45:50;29.60;67.60
8707;DHT22;4390;49.302;9.306;2022-08-25T10:48:32;29.80;67.70
8707;DHT22;4390;49.302;9.306;2022-08-25T11:00:00;30.20;66.50
8707;DHT22;4390;49.302;9.306;2022-08-25T11:03:08;30.50;66.40
8707;DHT22;4390;49.302;9.306;2022-08-25T11:05:58;30.50;67.10
8707;DHT22;4390;49.302;9.306;2022-08-25T11:11:11;30.70;66.00
8707;DHT22;4390;49.302;9.306;2022-08-25T11:16:32;30.70;65.00
8707;DHT22;4390;49.302;9.306;2022-08-25T11:19:35;30.60;65.40
8707;DHT22;4390;49.302;9.306;2022-08-25T11:22:07;30.70;64.80
8707;DHT22;4390;49.302;9.306;2022-08-25T11:24:58;30.80;64.10
8707;DHT22;4390;49.302;9.306;2022-08-25T11:27:56;30.80;64.60
8707;DHT22;4390;49.302;9.306;2022-08-25T11:30:24;30.60;64.20
8707;DHT22;4390;49.302;9.306;2022-08-25T11:32:53;30.30;64.30
8707;DHT22;4390;49.302;9.306;2022-08-25T11:43:48;30.50;64.60
8707;DHT22;4390;49.302;9.306;2022-08-25T11:56:08;30.40;64.70
8707;DHT22;4390;49.302;9.306;2022-08-25T11:58:34;30.40;64.80
8707;DHT22;4390;49.302;9.306;2022-08-25T12:01:04;30.10;64.70
8707;DHT22;4390;49.302;9.306;2022-08-25T12:09:16;29.80;65.10
8707;DHT22;4390;49.302;9.306;2022-08-25T12:11:49;29.70;65.50
8707;DHT22;4390;49.302;9.306;2022-08-25T12:35:56;30.60;63.80
8707;DHT22;4390;49.302;9.306;2022-08-25T12:38:43;30.70;63.90
8707;DHT22;4390;49.302;9.306;2022-08-25T12:43:52;31.00;63.20
8707;DHT22;4390;49.302;9.306;2022-08-25T12:48:57;31.20;63.20
8707;DHT22;4390;49.302;9.306;2022-08-25T12:54:00;31.50;62.60
8707;DHT22;4390;49.302;9.306;2022-08-25T12:56:44;31.60;62.70
8707;DHT22;4390;49.302;9.306;2022-08-25T12:59:20;31.70;61.90
8707;DHT22;4390;49.302;9.306;2022-08-25T13:07:48;31.70;62.20
8707;DHT22;4390;49.302;9.306;2022-08-25T13:16:24;31.20;62.40
8707;DHT22;4390;49.302;9.306;2022-08-25T13:18:57;31.30;62.30
8707;DHT22;4390;49.302;9.306;2022-08-25T13:21:40;31.30;61.70
8707;DHT22;4390;49.302;9.306;2022-08-25T13:24:28;31.20;62.20
8707;DHT22;4390;49.302;9.306;2022-08-25T13:26:59;31.20;62.40
8707;DHT22;4390;49.302;9.306;2022-08-25T13:29:34;31.50;62.00
8707;DHT22;4390;49.302;9.306;2022-08-25T13:32:07;31.60;62.30
8707;DHT22;4390;49.302;9.306;2022-08-25T13:34:41;31.80;61.70
8707;DHT22;4390;49.302;9.306;2022-08-25T13:37:21;31.70;61.10
8707;DHT22;4390;49.302;9.306;2022-08-25T13:42:48;31.40;61.70
8707;DHT22;4390;49.302;9.306;2022-08-25T13:45:28;31.30;62.20
8707;DHT22;4390;49.302;9.306;2022-08-25T13:47:57;31.20;62.20
8707;DHT22;4390;49.302;9.306;2022-08-25T13:52:56;31.20;62.40
8707;DHT22;4390;49.302;9.306;2022-08-25T13:55:37;31.30;62.40
8707;DHT22;4390;49.302;9.306;2022-08-25T13:58:32;31.30;61.90
8707;DHT22;4390;49.302;9.306;2022-08-25T14:01:18;31.30;62.10
8707;DHT22;4390;49.302;9.306;2022-08-25T14:10:28;31.50;61.60
8707;DHT22;4390;49.302;9.306;2022-08-25T14:15:43;31.60;61.40
8707;DHT22;4390;49.302;9.306;2022-08-25T14:18:29;31.70;61.50
8707;DHT22;4390;49.302;9.306;2022-08-25T14:21:00;31.80;61.10
8707;DHT22;4390;49.302;9.306;2022-08-25T14:23:29;31.90;61.10
8707;DHT22;4390;49.302;9.306;2022-08-25T14:25:57;32.00;60.90
8707;DHT22;4390;49.302;9.306;2022-08-25T14:28:26;32.00;60.90
8707;DHT22;4390;49.302;9.306;2022-08-25T14:31:33;31.90;60.80
8707;DHT22;4390;49.302;9.306;2022-08-25T14:34:06;32.00;60.70
8707;DHT22;4390;49.302;9.306;2022-08-25T14:36:38;32.00;60.90
8707;DHT22;4390;49.302;9.306;2022-08-25T14:39:04;32.10;61.10
8707;DHT22;4390;49.302;9.306;2022-08-25T14:41:36;32.20;60.30
8707;DHT22;4390;49.302;9.306;2022-08-25T14:44:04;32.20;60.30
8707;DHT22;4390;49.302;9.306;2022-08-25T14:46:34;32.10;60.80
8707;DHT22;4390;49.302;9.306;2022-08-25T14:49:05;32.20;60.90
8707;DHT22;4390;49.302;9.306;2022-08-25T14:51:33;32.00;61.20
8707;DHT22;4390;49.302;9.306;2022-08-25T14:54:04;32.00;61.20
8707;DHT22;4390;49.302;9.306;2022-08-25T14:56:32;32.00;60.60
8707;DHT22;4390;49.302;9.306;2022-08-25T14:59:00;31.80;60.80
8707;DHT22;4390;49.302;9.306;2022-08-25T15:01:27;31.90;61.00
8707;DHT22;4390;49.302;9.306;2022-08-25T15:04:05;31.90;61.10
8707;DHT22;4390;49.302;9.306;2022-08-25T15:06:34;31.90;61.30
8707;DHT22;4390;49.302;9.306;2022-08-25T15:09:03;31.90;61.30
8707;DHT22;4390;49.302;9.306;2022-08-25T15:11:45;31.90;61.40
8707;DHT22;4390;49.302;9.306;2022-08-25T15:14:14;31.90;61.60
8707;DHT22;4390;49.302;9.306;2022-08-25T15:16:45;31.80;61.30
8707;DHT22;4390;49.302;9.306;2022-08-25T15:19:17;31.70;62.10
8707;DHT22;4390;49.302;9.306;2022-08-25T15:21:46;31.70;62.10
8707;DHT22;4390;49.302;9.306;2022-08-25T15:24:14;31.80;62.00
8707;DHT22;4390;49.302;9.306;2022-08-25T15:26:52;31.70;61.80
8707;DHT22;4390;49.302;9.306;2022-08-25T15:29:20;31.70;61.90
8707;DHT22;4390;49.302;9.306;2022-08-25T15:31:49;31.70;61.80
8707;DHT22;4390;49.302;9.306;2022-08-25T15:34:16;31.60;61.80
8707;DHT22;4390;49.302;9.306;2022-08-25T15:36:44;31.60;61.40
8707;DHT22;4390;49.302;9.306;2022-08-25T15:39:10;31.50;61.40
8707;DHT22;4390;49.302;9.306;2022-08-25T15:41:38;31.50;61.40
8707;DHT22;4390;49.302;9.306;2022-08-25T15:44:08;31.50;61.70
8707;DHT22;4390;49.302;9.306;2022-08-25T15:46:39;31.40;61.80
8707;DHT22;4390;49.302;9.306;2022-08-25T15:49:07;31.30;61.80
8707;DHT22;4390;49.302;9.306;2022-08-25T15:51:34;31.20;61.60
8707;DHT22;4390;49.302;9.306;2022-08-25T15:54:01;31.20;62.00
8707;DHT22;4390;49.302;9.306;2022-08-25T15:56:27;31.20;62.10
8707;DHT22;4390;49.302;9.306;2022-08-25T15:58:54;31.10;61.10
8707;DHT22;4390;49.302;9.306;2022-08-25T16:01:23;31.10;61.20
8707;DHT22;4390;49.302;9.306;2022-08-25T16:03:51;31.10;61.70
8707;DHT22;4390;49.302;9.306;2022-08-25T16:06:18;31.00;61.70
8707;DHT22;4390;49.302;9.306;2022-08-25T16:08:45;31.10;61.60
8707;DHT22;4390;49.302;9.306;2022-08-25T16:11:28;31.10;62.00
8707;DHT22;4390;49.302;9.306;2022-08-25T16:13:56;31.10;61.80
8707;DHT22;4390;49.302;9.306;2022-08-25T16:16:25;31.00;61.40
8707;DHT22;4390;49.302;9.306;2022-08-25T16:18:53;30.90;61.70
8707;DHT22;4390;49.302;9.306;2022-08-25T16:21:26;30.80;62.00
8707;DHT22;4390;49.302;9.306;2022-08-25T16:23:58;30.70;61.80
8707;DHT22;4390;49.302;9.306;2022-08-25T16:26:29;30.70;62.20
8707;DHT22;4390;49.302;9.306;2022-08-25T16:28:56;30.70;62.20
8707;DHT22;4390;49.302;9.306;2022-08-25T16:31:23;30.70;62.00
8707;DHT22;4390;49.302;9.306;2022-08-25T16:33:50;30.70;61.90
8707;DHT22;4390;49.302;9.306;2022-08-25T16:36:24;30.50;62.40
8707;DHT22;4390;49.302;9.306;2022-08-25T16:38:54;30.50;62.60
8707;DHT22;4390;49.302;9.306;2022-08-25T16:41:24;30.40;62.80
8707;DHT22;4390;49.302;9.306;2022-08-25T16:43:53;30.40;63.20
8707;DHT22;4390;49.302;9.306;2022-08-25T16:46:20;30.30;63.40
8707;DHT22;4390;49.302;9.306;2022-08-25T16:48:49;30.20;63.50
8707;DHT22;4390;49.302;9.306;2022-08-25T16:51:19;30.10;63.50
8707;DHT22;4390;49.302;9.306;2022-08-25T16:53:51;29.90;63.50
8707;DHT22;4390;49.302;9.306;2022-08-25T16:56:36;29.90;63.90
8707;DHT22;4390;49.302;9.306;2022-08-25T16:59:04;29.80;64.00
8707;DHT22;4390;49.302;9.306;2022-08-25T17:01:33;29.70;64.20
8707;DHT22;4390;49.302;9.306;2022-08-25T17:04:01;29.60;64.50
8707;DHT22;4390;49.302;9.306;2022-08-25T17:06:33;29.50;64.90
8707;DHT22;4390;49.302;9.306;2022-08-25T17:09:00;29.40;64.90
8707;DHT22;4390;49.302;9.306;2022-08-25T17:11:33;29.30;65.30
8707;DHT22;4390;49.302;9.306;2022-08-25T17:14:05;29.20;65.20
8707;DHT22;4390;49.302;9.306;2022-08-25T17:16:36;29.10;65.80
8707;DHT22;4390;49.302;9.306;2022-08-25T17:19:06;29.10;65.60
8707;DHT22;4390;49.302;9.306;2022-08-25T17:21:39;29.10;65.70
8707;DHT22;4390;49.302;9.306;2022-08-25T17:24:12;29.00;65.80
8707;DHT22;4390;49.302;9.306;2022-08-25T17:26:40;29.00;65.90
8707;DHT22;4390;49.302;9.306;2022-08-25T17:29:08;28.80;66.30
8707;DHT22;4390;49.302;9.306;2022-08-25T17:31:35;28.70;66.60
8707;DHT22;4390;49.302;9.306;2022-08-25T17:34:10;28.60;66.70
8707;DHT22;4390;49.302;9.306;2022-08-25T17:36:42;28.60;67.10
8707;DHT22;4390;49.302;9.306;2022-08-25T17:39:12;28.60;67.20
8707;DHT22;4390;49.302;9.306;2022-08-25T17:41:40;28.40;67.60
8707;DHT22;4390;49.302;9.306;2022-08-25T17:44:11;28.30;67.90
8707;DHT22;4390;49.302;9.306;2022-08-25T17:46:39;28.20;68.20
8707;DHT22;4390;49.302;9.306;2022-08-25T17:49:15;28.00;68.30
8707;DHT22;4390;49.302;9.306;2022-08-25T17:51:42;27.90;68.80
8707;DHT22;4390;49.302;9.306;2022-08-25T17:54:11;27.80;69.10
8707;DHT22;4390;49.302;9.306;2022-08-25T17:56:38;27.80;69.20
8707;DHT22;4390;49.302;9.306;2022-08-25T17:59:05;27.80;69.20
8707;DHT22;4390;49.302;9.306;2022-08-25T18:01:34;27.90;68.80
8707;DHT22;4390;49.302;9.306;2022-08-25T18:04:06;27.90;68.60
8707;DHT22;4390;49.302;9.306;2022-08-25T18:06:43;27.90;69.00
8707;DHT22;4390;49.302;9.306;2022-08-25T18:09:11;27.80;69.10
8707;DHT22;4390;49.302;9.306;2022-08-25T18:11:38;27.70;69.30
8707;DHT22;4390;49.302;9.306;2022-08-25T18:14:04;27.60;69.20
8707;DHT22;4390;49.302;9.306;2022-08-25T18:16:31;27.50;69.50
8707;DHT22;4390;49.302;9.306;2022-08-25T18:18:59;27.40;69.80
8707;DHT22;4390;49.302;9.306;2022-08-25T18:21:27;27.40;69.70
8707;DHT22;4390;49.302;9.306;2022-08-25T18:23:56;27.40;69.90
8707;DHT22;4390;49.302;9.306;2022-08-25T18:26:23;27.20;70.00
8707;DHT22;4390;49.302;9.306;2022-08-25T18:28:51;27.10;70.50
8707;DHT22;4390;49.302;9.306;2022-08-25T18:31:18;27.10;70.50
8707;DHT22;4390;49.302;9.306;2022-08-25T18:33:45;26.90;70.40
8707;DHT22;4390;49.302;9.306;2022-08-25T18:36:12;26.90;70.60
8707;DHT22;4390;49.302;9.306;2022-08-25T18:38:40;26.90;70.80
8707;DHT22;4390;49.302;9.306;2022-08-25T18:41:32;26.80;71.10
8707;DHT22;4390;49.302;9.306;2022-08-25T18:43:59;26.70;71.10
8707;DHT22;4390;49.302;9.306;2022-08-25T18:46:26;26.60;71.40
8707;DHT22;4390;49.302;9.306;2022-08-25T18:48:53;26.40;71.60
8707;DHT22;4390;49.302;9.306;2022-08-25T18:51:22;26.40;71.70
8707;DHT22;4390;49.302;9.306;2022-08-25T18:53:49;26.40;71.30